createdAt,value
2022-07-25T00:00:21.087Z,2.45
2022-07-25T00:05:22.906Z,2.63
2022-07-25T00:10:24.868Z,2.78
2022-07-25T00:15:26.600Z,2.58
2022-07-25T00:20:28.339Z,2.70
2022-07-25T00:25:30.047Z,2.67
2022-07-25T00:30:31.796Z,2.75
2022-07-25T00:35:33.659Z,2.30
2022-07-25T00:40:35.789Z,3.13
2022-07-25T00:45:37.635Z,2.80
2022-07-25T00:50:39.429Z,3.90
2022-07-25T00:55:41.183Z,3.35
2022-07-25T01:00:42.957Z,4.63
2022-07-25T01:05:44.841Z,2.33
2022-07-25T01:10:48.149Z,3.10
2022-07-25T01:15:49.960Z,2.28
2022-07-25T01:20:51.794Z,3.60
2022-07-25T01:25:53.872Z,3.10
2022-07-25T01:30:55.718Z,3.08
2022-07-25T01:35:57.538Z,2.40
2022-07-25T01:40:59.267Z,2.15
2022-07-25T01:46:01.066Z,2.50
2022-07-25T01:51:02.847Z,2.38
2022-07-25T01:56:06.164Z,2.40
2022-07-25T02:01:10.720Z,2.42
2022-07-25T02:06:12.642Z,2.55
2022-07-25T02:11:14.452Z,2.60
2022-07-25T02:16:16.186Z,2.40
2022-07-25T02:21:17.938Z,2.47
2022-07-25T02:26:19.673Z,2.78
2022-07-25T02:31:21.758Z,2.90
2022-07-25T02:36:23.663Z,2.38
2022-07-25T02:41:25.415Z,3.03
2022-07-25T02:46:27.229Z,2.55
2022-07-25T02:51:29.422Z,2.22
2022-07-25T02:56:33.122Z,2.70
2022-07-25T03:01:34.880Z,2.47
2022-07-25T03:06:36.680Z,2.58
2022-07-25T03:11:38.570Z,3.17
2022-07-25T03:16:40.739Z,2.60
2022-07-25T03:21:42.535Z,2.63
2022-07-25T03:26:44.441Z,2.50
2022-07-25T03:31:46.250Z,2.85
2022-07-25T03:36:48.041Z,2.75
2022-07-25T03:41:50.052Z,2.88
2022-07-25T03:46:52.206Z,2.90
2022-07-25T03:51:53.926Z,3.05
2022-07-25T03:56:55.745Z,2.50
2022-07-25T04:01:57.526Z,2.83
2022-07-25T04:06:59.510Z,3.10
2022-07-25T04:12:01.379Z,2.60
2022-07-25T04:17:03.236Z,2.53
2022-07-25T04:22:05.111Z,2.90
2022-07-25T04:27:06.992Z,2.83
2022-07-25T04:32:08.939Z,2.60
2022-07-25T04:37:10.952Z,2.15
2022-07-25T04:42:12.906Z,2.50
2022-07-25T04:47:14.745Z,2.78
2022-07-25T04:52:16.583Z,2.70
2022-07-25T04:57:18.697Z,2.65
2022-07-25T05:02:20.474Z,2.33
2022-07-25T05:07:22.234Z,2.40
2022-07-25T05:12:24.025Z,2.58
2022-07-25T05:17:25.779Z,2.50
2022-07-25T05:22:29.120Z,2.92
2022-07-25T05:27:30.990Z,2.70
2022-07-25T05:32:32.941Z,3.20
2022-07-25T05:37:36.113Z,2.70
2022-07-25T05:42:37.924Z,3.00
2022-07-25T05:47:39.729Z,3.35
2022-07-25T05:52:41.592Z,3.00
2022-07-25T05:57:43.488Z,3.05
2022-07-25T06:02:45.494Z,3.35
2022-07-25T06:07:47.392Z,4.40
2022-07-25T06:12:49.201Z,3.90
2022-07-25T06:17:51.244Z,3.60
2022-07-25T06:22:53.158Z,3.47
2022-07-25T06:27:54.929Z,3.45
2022-07-25T06:32:56.739Z,3.92
2022-07-25T06:37:59.090Z,3.85
2022-07-25T06:43:00.869Z,3.83
2022-07-25T06:48:02.802Z,4.05
2022-07-25T06:53:04.580Z,3.67
2022-07-25T06:58:06.383Z,4.20
2022-07-25T07:03:08.348Z,4.22
2022-07-25T07:08:10.165Z,4.22
2022-07-25T07:13:14.068Z,6.20
2022-07-25T07:18:19.901Z,4.95
2022-07-25T07:23:21.676Z,4.28
2022-07-25T07:28:23.540Z,4.53
2022-07-25T07:33:25.365Z,4.63
2022-07-25T07:38:27.683Z,4.50
2022-07-25T07:43:31.775Z,5.15
2022-07-25T07:48:33.943Z,6.60
2022-07-25T07:53:54.294Z,5.65
2022-07-25T07:58:56.118Z,5.13
2022-07-25T08:03:57.992Z,5.25
2022-07-25T08:08:59.779Z,5.88
2022-07-25T08:14:01.791Z,6.07
2022-07-25T08:19:03.805Z,6.10
2022-07-25T08:24:07.029Z,6.00
2022-07-25T08:29:19.421Z,6.55
2022-07-25T08:34:22.599Z,6.90
2022-07-25T08:39:24.440Z,6.75
2022-07-25T08:44:32.241Z,6.20
2022-07-25T08:49:35.497Z,7.03
2022-07-25T08:54:37.531Z,7.45
2022-07-25T08:59:39.297Z,7.03
2022-07-25T09:04:43.398Z,7.00
2022-07-25T09:09:45.225Z,7.35
2022-07-25T09:14:48.737Z,7.22
2022-07-25T09:19:57.710Z,8.18
2022-07-25T09:24:59.536Z,9.38
2022-07-25T09:30:01.344Z,8.65
2022-07-25T09:35:03.275Z,8.93
2022-07-25T09:40:15.625Z,9.40
2022-07-25T09:45:17.396Z,9.25
2022-07-25T09:50:20.633Z,9.02
2022-07-25T09:55:24.813Z,9.30
2022-07-25T10:00:29.045Z,9.60
2022-07-25T10:06:15.775Z,9.45
2022-07-25T10:11:25.637Z,9.23
2022-07-25T10:16:27.849Z,9.65
2022-07-25T10:21:29.732Z,9.25
2022-07-25T10:26:32.300Z,9.90
2022-07-25T10:31:37.000Z,9.40
2022-07-25T10:36:51.164Z,9.00
2022-07-25T10:42:02.832Z,9.73
2022-07-25T10:47:11.477Z,10.25
2022-07-25T10:52:17.775Z,9.52
2022-07-25T10:57:19.646Z,10.50
2022-07-25T11:02:24.389Z,9.75
2022-07-25T11:07:28.638Z,10.15
2022-07-25T11:12:31.237Z,10.65
2022-07-25T11:17:34.330Z,9.98
2022-07-25T11:22:36.779Z,11.65
2022-07-25T11:27:38.639Z,10.02
2022-07-25T11:32:54.073Z,10.13
2022-07-25T11:37:57.171Z,9.80
2022-07-25T11:42:59.791Z,9.20
2022-07-25T11:48:08.869Z,9.63
2022-07-25T11:53:14.730Z,9.32
2022-07-25T11:58:17.904Z,9.40
2022-07-25T12:03:23.406Z,10.18
2022-07-25T12:08:25.506Z,9.15
2022-07-25T12:13:29.746Z,9.77
2022-07-25T12:18:31.569Z,9.48
2022-07-25T12:23:34.429Z,9.52
2022-07-25T12:28:36.265Z,9.10
2022-07-25T12:33:38.345Z,9.68
2022-07-25T12:38:40.286Z,9.95
2022-07-25T12:43:42.391Z,9.43
2022-07-25T12:48:44.251Z,9.90
2022-07-25T12:53:46.952Z,9.20
2022-07-25T12:58:50.379Z,9.25
2022-07-25T13:03:52.177Z,9.20
2022-07-25T13:08:53.969Z,9.38
2022-07-25T13:13:55.768Z,9.18
2022-07-25T13:18:57.564Z,8.63
2022-07-25T13:23:59.397Z,9.20
2022-07-25T13:29:01.891Z,8.65
2022-07-25T13:34:03.792Z,8.90
2022-07-25T13:39:06.660Z,8.77
2022-07-25T13:44:09.078Z,8.85
2022-07-25T13:49:13.977Z,9.60
2022-07-25T13:54:15.891Z,9.75
2022-07-25T13:59:21.518Z,9.48
2022-07-25T14:04:23.808Z,8.75
2022-07-25T14:09:25.596Z,8.63
2022-07-25T14:14:27.356Z,8.18
2022-07-25T14:19:29.171Z,8.43
2022-07-25T14:24:31.013Z,8.45
2022-07-25T14:29:33.229Z,8.75
2022-07-25T14:34:35.629Z,8.50
2022-07-25T14:39:37.540Z,8.20
2022-07-25T14:44:41.517Z,7.95
2022-07-25T14:49:45.604Z,8.45
2022-07-25T14:54:47.403Z,7.88
2022-07-25T14:59:49.224Z,8.30
2022-07-25T15:04:51.101Z,8.88
2022-07-25T15:09:52.957Z,8.60
2022-07-25T15:14:54.851Z,9.05
2022-07-25T15:19:56.710Z,8.52
2022-07-25T15:25:29.773Z,8.93
2022-07-25T15:30:21.340Z,8.48
2022-07-25T15:35:25.429Z,8.40
2022-07-25T15:40:27.476Z,9.00
2022-07-25T15:45:33.119Z,8.80
2022-07-25T15:50:37.064Z,8.90
2022-07-25T15:55:40.686Z,8.85
2022-07-25T16:00:42.816Z,9.05
2022-07-25T16:05:45.085Z,8.18
2022-07-25T16:10:46.841Z,7.95
2022-07-25T16:15:48.657Z,8.65
2022-07-25T16:20:50.516Z,8.65
2022-07-25T16:25:52.564Z,7.97
2022-07-25T16:30:54.485Z,8.40
2022-07-25T16:35:57.298Z,8.07
2022-07-25T16:40:59.524Z,8.52
2022-07-25T16:46:02.114Z,8.70
2022-07-25T16:51:04.626Z,8.32
2022-07-25T16:56:06.857Z,8.27
2022-07-25T17:01:08.750Z,7.68
2022-07-25T17:06:10.713Z,7.80
2022-07-25T17:11:12.688Z,8.60
2022-07-25T17:16:14.639Z,9.10
2022-07-25T17:21:18.299Z,8.68
2022-07-25T17:26:20.925Z,8.77
2022-07-25T17:31:24.271Z,9.13
2022-07-25T17:36:26.265Z,10.52
2022-07-25T17:41:28.022Z,9.80
2022-07-25T17:46:29.932Z,11.88
2022-07-25T17:51:32.066Z,11.35
2022-07-25T17:56:33.956Z,9.55
2022-07-25T18:01:35.808Z,8.25
2022-07-25T18:06:37.677Z,8.13
2022-07-25T18:11:40.483Z,7.50
2022-07-25T18:16:45.351Z,7.95
2022-07-25T18:21:47.738Z,8.30
2022-07-25T18:26:49.659Z,8.18
2022-07-25T18:31:51.470Z,8.40
2022-07-25T18:36:53.319Z,7.97
2022-07-25T18:41:55.105Z,8.15
2022-07-25T18:46:56.887Z,8.85
2022-07-25T18:51:59.370Z,9.35
2022-07-25T18:57:01.151Z,10.10
2022-07-25T19:02:03.345Z,9.40
2022-07-25T19:07:05.320Z,9.95
2022-07-25T19:12:07.829Z,10.30
2022-07-25T19:17:09.666Z,10.73
2022-07-25T19:22:11.582Z,10.93
2022-07-25T19:27:13.416Z,11.68
2022-07-25T19:32:17.968Z,10.57
2022-07-25T19:37:20.146Z,9.80
2022-07-25T19:42:22.058Z,10.85
2022-07-25T19:47:23.858Z,10.02
2022-07-25T19:52:25.805Z,10.93
2022-07-25T19:57:28.066Z,10.63
2022-07-25T20:02:29.874Z,9.98
2022-07-25T20:07:31.739Z,10.40
2022-07-25T20:12:34.962Z,8.80
2022-07-25T20:17:36.766Z,8.70
2022-07-25T20:22:38.644Z,7.60
2022-07-25T20:27:40.590Z,7.53
2022-07-25T20:32:42.497Z,7.05
2022-07-25T20:37:44.486Z,7.63
2022-07-25T20:42:46.641Z,8.98
2022-07-25T20:47:48.622Z,9.13
2022-07-25T20:52:50.824Z,8.70
2022-07-25T20:57:52.615Z,7.72
2022-07-25T21:02:55.317Z,8.63
2022-07-25T21:07:58.281Z,8.40
2022-07-25T21:13:00.053Z,8.25
2022-07-25T21:18:01.976Z,8.30
2022-07-25T21:23:04.508Z,8.57
2022-07-25T21:28:06.607Z,8.18
2022-07-25T21:33:14.295Z,8.93
2022-07-25T21:38:26.712Z,9.05
2022-07-25T21:43:30.101Z,8.95
2022-07-25T21:48:50.324Z,8.75
2022-07-25T21:53:52.787Z,8.98
2022-07-25T21:58:54.671Z,9.90
2022-07-25T22:03:56.511Z,9.93
2022-07-25T22:08:58.354Z,11.30
2022-07-25T22:14:00.202Z,12.68
2022-07-25T22:19:02.235Z,12.38
2022-07-25T22:24:04.322Z,12.50
2022-07-25T22:29:06.366Z,11.45
2022-07-25T22:34:08.565Z,11.63
2022-07-25T22:39:11.150Z,12.40
2022-07-25T22:44:13.425Z,12.82
2022-07-25T22:49:15.282Z,11.77
2022-07-25T22:54:17.382Z,11.77
2022-07-25T22:59:19.348Z,12.27
2022-07-25T23:04:21.268Z,10.95
2022-07-25T23:09:23.520Z,10.98
2022-07-25T23:14:25.363Z,10.23
2022-07-25T23:19:27.252Z,10.50
2022-07-25T23:24:29.060Z,8.90
2022-07-25T23:29:30.973Z,8.90
2022-07-25T23:34:33.360Z,8.43
2022-07-25T23:39:35.837Z,8.93
2022-07-25T23:44:38.022Z,8.10
2022-07-25T23:49:39.881Z,7.57
2022-07-25T23:54:41.814Z,6.57
2022-07-25T23:59:43.658Z,6.68
